createdAt,value
2023-03-10T00:00:09.252Z,22.37
2023-03-10T00:01:09.232Z,22.35
2023-03-10T00:02:09.246Z,22.35
2023-03-10T00:03:09.242Z,22.34
2023-03-10T00:04:09.288Z,22.34
2023-03-10T00:05:09.277Z,22.31
2023-03-10T00:06:09.362Z,22.32
2023-03-10T00:07:09.269Z,22.34
2023-03-10T00:08:09.286Z,22.35
2023-03-10T00:09:09.283Z,22.35
2023-03-10T00:10:09.272Z,22.34
2023-03-10T00:11:09.305Z,22.32
2023-03-10T00:12:09.290Z,22.30
2023-03-10T00:13:09.483Z,22.29
2023-03-10T00:14:09.305Z,22.27
2023-03-10T00:15:09.328Z,22.27
2023-03-10T00:16:09.359Z,22.28
2023-03-10T00:17:09.340Z,22.31
2023-03-10T00:18:09.424Z,22.30
2023-03-10T00:19:09.399Z,22.31
2023-03-10T00:20:09.470Z,22.31
2023-03-10T00:21:09.386Z,22.32
2023-03-10T00:22:09.382Z,22.33
2023-03-10T00:23:09.446Z,22.33
2023-03-10T00:24:09.474Z,22.33
2023-03-10T00:25:09.403Z,22.32
2023-03-10T00:26:09.401Z,22.30
2023-03-10T00:27:09.444Z,22.29
2023-03-10T00:28:09.454Z,22.28
2023-03-10T00:29:09.471Z,22.27
2023-03-10T00:30:09.501Z,22.26
2023-03-10T00:31:09.524Z,22.26
2023-03-10T00:32:09.580Z,22.27
2023-03-10T00:33:09.520Z,22.27
2023-03-10T00:34:09.528Z,22.29
2023-03-10T00:38:09.605Z,22.26
2023-03-10T00:39:11.803Z,22.24
2023-03-10T00:40:09.604Z,22.25
2023-03-10T00:41:09.620Z,22.24
2023-03-10T00:42:09.661Z,22.22
2023-03-10T00:43:09.673Z,22.23
2023-03-10T00:44:09.747Z,22.23
2023-03-10T00:45:09.709Z,22.22
2023-03-10T00:46:09.783Z,22.21
2023-03-10T00:47:09.781Z,22.22
2023-03-10T00:48:09.759Z,22.22
2023-03-10T00:49:09.771Z,22.24
2023-03-10T00:50:09.794Z,22.25
2023-03-10T00:51:09.809Z,22.25
2023-03-10T00:52:09.787Z,22.24
2023-03-10T00:53:09.834Z,22.25
2023-03-10T00:54:09.854Z,22.26
2023-03-10T00:55:09.852Z,22.26
2023-03-10T00:56:09.859Z,22.28
2023-03-10T00:57:09.867Z,22.30
2023-03-10T00:58:09.875Z,22.30
2023-03-10T00:59:09.879Z,22.28
2023-03-10T01:00:09.875Z,22.25
2023-03-10T01:01:09.962Z,22.20
2023-03-10T01:02:09.912Z,22.16
2023-03-10T01:03:09.975Z,22.16
2023-03-10T01:04:10.020Z,22.18
2023-03-10T01:05:09.996Z,22.18
2023-03-10T01:06:09.991Z,22.18
2023-03-10T01:07:10.045Z,22.18
2023-03-10T01:08:10.046Z,22.17
2023-03-10T01:09:10.043Z,22.17
2023-03-10T01:10:10.041Z,22.18
2023-03-10T01:11:10.094Z,22.19
2023-03-10T01:12:10.120Z,22.20
2023-03-10T01:13:10.146Z,22.18
2023-03-10T01:14:10.125Z,22.17
2023-03-10T01:15:10.137Z,22.17
2023-03-10T01:16:10.174Z,22.17
2023-03-10T01:17:10.138Z,22.18
2023-03-10T01:18:10.210Z,22.15
2023-03-10T01:19:10.231Z,22.11
2023-03-10T01:20:10.232Z,22.09
2023-03-10T01:21:10.232Z,22.06
2023-03-10T01:22:10.272Z,22.04
2023-03-10T01:23:10.316Z,22.04
2023-03-10T01:24:10.311Z,22.05
2023-03-10T01:25:10.353Z,22.05
2023-03-10T02:12:12.284Z,21.84
2023-03-10T02:21:12.638Z,21.95
2023-03-10T03:04:14.934Z,21.82
2023-03-10T03:05:14.860Z,21.81
2023-03-10T03:06:14.894Z,21.81
2023-03-10T03:07:14.938Z,21.80
2023-03-10T03:08:15.014Z,21.79
2023-03-10T03:09:15.083Z,21.74
2023-03-10T03:10:15.157Z,21.75
2023-03-10T03:11:15.212Z,21.78
2023-03-10T03:12:15.269Z,21.81
2023-03-10T03:13:15.328Z,21.83
2023-03-10T03:14:17.187Z,21.84
2023-03-10T03:15:15.337Z,21.85
2023-03-10T03:16:15.353Z,21.83
2023-03-10T03:17:15.312Z,21.81
2023-03-10T03:18:15.313Z,21.79
2023-03-10T03:19:15.318Z,21.78
2023-03-10T03:20:15.305Z,21.79
2023-03-10T03:21:15.324Z,21.77
2023-03-10T03:22:15.292Z,21.75
2023-03-10T03:23:15.295Z,21.77
2023-03-10T03:24:15.262Z,21.74
2023-03-10T03:25:15.252Z,21.74
2023-03-10T03:26:15.307Z,21.72
2023-03-10T03:27:15.270Z,21.71
2023-03-10T03:28:15.267Z,21.71
2023-03-10T03:29:15.235Z,21.71
2023-03-10T03:30:15.249Z,21.73
2023-03-10T03:31:15.233Z,21.75
2023-03-10T03:32:15.284Z,21.76
2023-03-10T03:34:15.223Z,21.75
2023-03-10T03:35:15.207Z,21.77
2023-03-10T03:36:15.217Z,21.77
2023-03-10T03:37:15.187Z,21.78
2023-03-10T03:38:15.208Z,21.76
2023-03-10T03:39:15.190Z,21.76
2023-03-10T03:40:15.196Z,21.79
2023-03-10T03:41:15.168Z,21.80
2023-03-10T03:45:15.333Z,21.77
2023-03-10T03:46:15.416Z,21.76
2023-03-10T03:47:15.440Z,21.78
2023-03-10T03:48:15.464Z,21.78
2023-03-10T03:49:15.538Z,21.78
2023-03-10T03:50:15.613Z,21.78
2023-03-10T03:51:15.640Z,21.80
2023-03-10T03:58:16.023Z,21.79
2023-03-10T03:59:16.096Z,21.81
2023-03-10T04:00:16.127Z,21.81
2023-03-10T04:01:16.154Z,21.84
2023-03-10T04:02:16.307Z,21.86
2023-03-10T04:03:16.315Z,21.84
2023-03-10T04:07:16.491Z,21.85
2023-03-10T04:08:16.535Z,21.87
2023-03-10T04:09:16.580Z,21.89
2023-03-10T04:10:16.642Z,21.88
2023-03-10T04:11:16.680Z,21.89
2023-03-10T04:12:16.736Z,21.92
2023-03-10T04:13:16.733Z,21.92
2023-03-10T04:14:16.792Z,21.90
2023-03-10T04:15:16.848Z,21.90
2023-03-10T04:16:17.036Z,21.90
2023-03-10T04:17:16.921Z,21.92
2023-03-10T04:18:16.974Z,21.94
2023-03-10T04:19:17.013Z,21.95
2023-03-10T04:20:17.103Z,21.98
2023-03-10T04:21:17.096Z,22.00
2023-03-10T04:22:17.102Z,22.02
2023-03-10T04:23:17.131Z,22.02
2023-03-10T04:24:17.199Z,21.99
2023-03-10T04:25:17.217Z,21.99
2023-03-10T04:26:17.241Z,22.02
2023-03-10T04:27:17.292Z,22.06
2023-03-10T04:28:17.314Z,22.12
2023-03-10T04:29:17.316Z,22.16
2023-03-10T04:30:17.350Z,22.20
2023-03-10T04:31:17.399Z,22.19
2023-03-10T04:32:17.413Z,22.18
2023-03-10T04:33:17.397Z,22.16
2023-03-10T04:34:17.386Z,22.18
2023-03-10T04:35:17.409Z,22.21
2023-03-10T04:36:17.446Z,22.22
2023-03-10T04:37:17.414Z,22.23
2023-03-10T04:38:17.409Z,22.25
2023-03-10T04:39:17.414Z,22.26
2023-03-10T04:40:17.435Z,22.26
2023-03-10T04:41:17.421Z,22.27
2023-03-10T04:42:17.429Z,22.28
2023-03-10T04:43:17.441Z,22.30
2023-03-10T04:44:29.902Z,22.31
2023-03-10T04:45:18.427Z,22.32
2023-03-10T04:46:17.473Z,22.31
2023-03-10T04:47:17.396Z,22.30
2023-03-10T04:48:17.414Z,22.30
2023-03-10T04:49:17.410Z,22.28
2023-03-10T04:50:17.393Z,22.26
2023-03-10T04:51:17.398Z,22.27
2023-03-10T04:52:17.401Z,22.25
2023-03-10T04:53:17.381Z,22.24
2023-03-10T04:54:17.385Z,22.23
2023-03-10T04:55:17.405Z,22.21
2023-03-10T04:56:17.347Z,22.18
2023-03-10T04:57:17.328Z,22.18
2023-03-10T04:58:17.347Z,22.17
2023-03-10T04:59:17.329Z,22.18
2023-03-10T05:00:17.385Z,22.18
2023-03-10T05:01:17.359Z,22.15
2023-03-10T05:02:17.319Z,22.11
2023-03-10T05:03:17.315Z,22.10
2023-03-10T05:07:17.316Z,22.04
2023-03-10T05:08:17.427Z,22.04
2023-03-10T05:09:17.383Z,22.05
2023-03-10T05:10:17.424Z,22.02
2023-03-10T05:11:17.449Z,21.99
2023-03-10T05:12:17.472Z,21.95
2023-03-10T05:13:17.530Z,21.94
2023-03-10T05:14:17.568Z,21.94
2023-03-10T05:15:17.598Z,21.94
2023-03-10T05:16:17.700Z,21.96
2023-03-10T05:17:17.684Z,21.97
2023-03-10T05:18:17.716Z,21.99
2023-03-10T05:19:17.751Z,22.00
2023-03-10T05:20:17.773Z,22.01
2023-03-10T05:21:17.817Z,22.02
2023-03-10T05:22:17.803Z,22.04
2023-03-10T05:23:17.847Z,22.05
2023-03-10T05:24:17.897Z,22.03
2023-03-10T05:25:17.908Z,22.03
2023-03-10T05:26:17.947Z,22.05
2023-03-10T05:27:17.956Z,22.08
2023-03-10T05:28:18.010Z,22.11
2023-03-10T05:29:18.004Z,22.14
2023-03-10T05:30:18.027Z,22.15
2023-03-10T05:31:18.071Z,22.16
2023-03-10T05:32:18.125Z,22.16
2023-03-10T05:33:18.078Z,22.14
2023-03-10T05:34:18.082Z,22.14
2023-03-10T05:35:18.110Z,22.14
2023-03-10T05:36:18.195Z,22.13
2023-03-10T05:37:18.167Z,22.13
2023-03-10T05:38:18.155Z,22.13
2023-03-10T05:39:18.167Z,22.14
2023-03-10T05:40:18.184Z,22.11
2023-03-10T05:41:18.247Z,22.11
2023-03-10T05:42:18.253Z,22.10
2023-03-10T05:43:18.299Z,22.08
2023-03-10T05:44:18.292Z,22.09
2023-03-10T05:45:18.291Z,22.09
2023-03-10T05:46:18.353Z,22.11
2023-03-10T05:47:18.334Z,22.11
2023-03-10T05:48:18.388Z,22.13
2023-03-10T05:49:18.374Z,22.14
2023-03-10T05:50:18.387Z,22.15
2023-03-10T05:51:18.400Z,22.15
2023-03-10T05:52:18.442Z,22.16
2023-03-10T05:53:18.464Z,22.16
2023-03-10T05:54:18.459Z,22.16
2023-03-10T05:55:18.496Z,22.16
2023-03-10T05:56:18.476Z,22.15
2023-03-10T05:57:18.500Z,22.15
2023-03-10T05:58:18.532Z,22.12
2023-03-10T05:59:18.557Z,22.10
2023-03-10T06:00:18.546Z,22.10
2023-03-10T06:01:25.620Z,22.11
2023-03-10T06:02:18.592Z,22.10
2023-03-10T06:03:18.748Z,22.11
2023-03-10T06:04:18.663Z,22.14
2023-03-10T06:05:18.583Z,22.14
2023-03-10T06:06:18.544Z,22.13
2023-03-10T06:07:18.551Z,22.11
2023-03-10T06:08:18.547Z,22.10
2023-03-10T06:09:18.553Z,22.09
2023-03-10T06:10:18.557Z,22.11
2023-03-10T06:11:18.589Z,22.12
2023-03-10T06:12:18.519Z,22.14
2023-03-10T06:13:18.529Z,22.15
2023-03-10T06:14:18.540Z,22.13
2023-03-10T06:15:18.505Z,22.11
2023-03-10T06:16:18.531Z,22.10
2023-03-10T06:17:19.806Z,22.10
2023-03-10T06:18:18.453Z,22.10
2023-03-10T06:19:18.460Z,22.11
2023-03-10T06:20:18.479Z,22.14
2023-03-10T06:21:18.437Z,22.15
2023-03-10T06:22:18.459Z,22.15
2023-03-10T06:23:18.433Z,22.13
2023-03-10T06:24:18.435Z,22.12
2023-03-10T06:25:18.448Z,22.11
2023-03-10T06:26:18.429Z,22.12
2023-03-10T06:27:18.418Z,22.13
2023-03-10T06:28:18.430Z,22.14
2023-03-10T06:29:18.634Z,22.13
2023-03-10T06:30:18.366Z,22.09
2023-03-10T06:31:18.436Z,22.09
2023-03-10T06:32:18.479Z,22.08
2023-03-10T06:33:18.405Z,22.06
2023-03-10T06:34:18.683Z,22.11
2023-03-10T06:35:18.343Z,22.14
2023-03-10T06:36:18.448Z,22.18
2023-03-10T06:37:18.436Z,22.22
2023-03-10T06:38:18.406Z,22.26
2023-03-10T06:39:18.651Z,22.30
2023-03-10T06:40:18.349Z,22.34
2023-03-10T06:41:18.350Z,22.40
2023-03-10T06:42:18.500Z,22.50
2023-03-10T06:43:18.350Z,22.59
2023-03-10T06:44:18.323Z,22.67
2023-03-10T06:45:18.308Z,22.75
2023-03-10T06:46:26.032Z,22.83
2023-03-10T06:47:18.293Z,22.89
2023-03-10T06:48:18.314Z,22.97
2023-03-10T06:50:18.310Z,23.13
2023-03-10T06:51:18.242Z,23.20
2023-03-10T06:52:18.253Z,23.28
2023-03-10T06:53:18.265Z,23.35
2023-03-10T06:54:18.260Z,23.43
2023-03-10T06:55:18.263Z,23.50
2023-03-10T06:56:18.251Z,23.57
2023-03-10T06:57:20.885Z,23.64
2023-03-10T06:58:18.255Z,23.70
2023-03-10T06:59:18.706Z,23.74
2023-03-10T07:01:18.266Z,23.81
2023-03-10T07:02:18.205Z,23.78
2023-03-10T07:03:18.233Z,23.74
2023-03-10T07:04:18.217Z,23.71
2023-03-10T07:05:18.189Z,23.67
2023-03-10T07:06:18.185Z,23.63
2023-03-10T07:07:18.195Z,23.59
2023-03-10T07:08:18.744Z,23.55
2023-03-10T07:09:18.154Z,23.52
2023-03-10T07:10:18.137Z,23.50
2023-03-10T07:11:18.159Z,23.48
2023-03-10T07:12:18.142Z,23.46
2023-03-10T07:13:18.138Z,23.44
2023-03-10T07:14:18.095Z,23.41
2023-03-10T07:15:18.156Z,23.39
2023-03-10T07:16:18.199Z,23.36
2023-03-10T07:17:18.098Z,23.34
2023-03-10T07:18:18.118Z,23.33
2023-03-10T07:19:18.068Z,23.31
2023-03-10T07:20:18.087Z,23.30
2023-03-10T07:21:18.085Z,23.29
2023-03-10T07:22:18.042Z,23.28
2023-03-10T07:23:18.032Z,23.27
2023-03-10T07:27:18.029Z,23.21
2023-03-10T07:28:18.050Z,23.20
2023-03-10T07:29:18.043Z,23.19
2023-03-10T07:30:18.053Z,23.18
2023-03-10T07:31:18.115Z,23.18
2023-03-10T07:32:18.094Z,23.17
2023-03-10T07:33:18.080Z,23.18
2023-03-10T07:34:18.000Z,23.17
2023-03-10T07:35:18.185Z,23.19
2023-03-10T07:36:18.035Z,23.24
2023-03-10T07:37:18.006Z,23.31
2023-03-10T07:38:17.960Z,23.38
2023-03-10T07:39:18.029Z,23.42
2023-03-10T07:40:18.205Z,23.51
2023-03-10T07:41:18.029Z,23.59
2023-03-10T07:42:17.987Z,23.66
2023-03-10T07:43:17.950Z,23.70
2023-03-10T07:44:17.939Z,23.76
2023-03-10T07:45:18.202Z,23.80
2023-03-10T07:46:17.992Z,23.82
2023-03-10T07:47:17.962Z,23.85
2023-03-10T07:48:17.900Z,23.86
2023-03-10T07:49:18.561Z,23.90
2023-03-10T07:50:17.889Z,23.93
2023-03-10T07:51:17.894Z,23.96
2023-03-10T07:52:17.901Z,23.98
2023-03-10T07:53:17.901Z,23.98
2023-03-10T07:54:20.705Z,23.96
2023-03-10T07:55:17.879Z,23.95
2023-03-10T07:56:17.876Z,23.96
2023-03-10T07:57:17.886Z,23.97
2023-03-10T07:58:17.834Z,23.98
2023-03-10T07:59:17.846Z,23.97
2023-03-10T08:00:18.213Z,23.96
2023-03-10T08:01:17.855Z,23.99
2023-03-10T08:02:17.821Z,24.01
2023-03-10T08:03:17.882Z,24.00
2023-03-10T08:04:17.922Z,24.00
2023-03-10T08:05:18.238Z,24.01
2023-03-10T08:06:17.783Z,24.03
2023-03-10T08:07:17.799Z,24.07
2023-03-10T08:08:17.800Z,24.08
2023-03-10T08:09:17.749Z,24.11
2023-03-10T08:10:17.795Z,24.17
2023-03-10T08:11:17.745Z,24.17
2023-03-10T08:12:17.762Z,24.22
2023-03-10T08:13:17.802Z,24.44
2023-03-10T08:14:19.898Z,24.35
2023-03-10T08:15:17.762Z,24.25
2023-03-10T08:16:17.774Z,24.20
2023-03-10T08:17:17.690Z,24.19
2023-03-10T08:18:17.723Z,24.14
2023-03-10T08:19:17.708Z,24.15
2023-03-10T08:20:17.691Z,24.17
2023-03-10T08:21:17.690Z,24.19
2023-03-10T08:22:17.910Z,24.20
2023-03-10T08:23:17.681Z,24.22
2023-03-10T08:24:17.690Z,24.24
2023-03-10T08:25:17.705Z,24.24
2023-03-10T08:26:17.715Z,24.23
2023-03-10T08:27:17.637Z,24.17
2023-03-10T08:28:17.624Z,24.11
2023-03-10T08:29:17.640Z,23.98
2023-03-10T08:30:17.646Z,23.95
2023-03-10T08:31:17.671Z,23.98
2023-03-10T08:32:18.237Z,24.04
2023-03-10T08:33:17.688Z,24.12
2023-03-10T08:34:17.785Z,24.17
2023-03-10T08:35:17.599Z,24.23
2023-03-10T08:36:17.848Z,24.28
2023-03-10T08:37:17.694Z,24.31
2023-03-10T08:38:17.589Z,24.32
2023-03-10T08:39:17.592Z,24.33
2023-03-10T08:40:17.574Z,24.33
2023-03-10T08:41:17.724Z,24.32
2023-03-10T08:42:17.605Z,24.33
2023-03-10T08:43:17.557Z,24.33
2023-03-10T08:44:17.587Z,24.33
2023-03-10T08:45:17.601Z,24.35
2023-03-10T08:46:17.590Z,24.38
2023-03-10T08:47:17.564Z,24.40
2023-03-10T08:48:17.515Z,24.42
2023-03-10T08:49:17.513Z,24.46
2023-03-10T08:50:17.522Z,24.51
2023-03-10T08:51:17.538Z,24.53
2023-03-10T08:52:17.501Z,24.55
2023-03-10T08:53:17.506Z,24.56
2023-03-10T08:54:17.514Z,24.60
2023-03-10T08:55:17.470Z,24.64
2023-03-10T08:56:17.532Z,24.65
2023-03-10T08:57:17.458Z,24.68
2023-03-10T08:58:17.451Z,24.70
2023-03-10T08:59:17.464Z,24.74
2023-03-10T09:00:17.476Z,24.76
2023-03-10T09:01:17.442Z,24.77
2023-03-10T09:02:17.520Z,24.79
2023-03-10T09:03:17.472Z,24.80
2023-03-10T09:04:17.419Z,24.82
2023-03-10T09:05:17.402Z,24.83
2023-03-10T09:06:17.412Z,24.85
2023-03-10T09:07:17.390Z,24.87
2023-03-10T09:08:18.014Z,24.88
2023-03-10T09:09:17.415Z,24.91
2023-03-10T09:10:17.431Z,24.90
2023-03-10T09:11:17.380Z,24.90
2023-03-10T09:12:17.367Z,24.91
2023-03-10T09:13:17.370Z,24.92
2023-03-10T09:14:17.506Z,24.94
2023-03-10T09:15:17.395Z,24.96
2023-03-10T09:16:17.418Z,24.99
2023-03-10T09:17:17.368Z,25.02
2023-03-10T09:18:17.399Z,25.04
2023-03-10T09:19:17.317Z,25.09
2023-03-10T09:20:17.318Z,25.12
2023-03-10T09:21:17.426Z,25.14
2023-03-10T09:22:17.316Z,25.16
2023-03-10T09:23:17.317Z,25.18
2023-03-10T09:24:17.281Z,25.22
2023-03-10T09:25:17.336Z,25.23
2023-03-10T09:26:17.305Z,25.26
2023-03-10T09:27:17.256Z,25.27
2023-03-10T09:28:18.769Z,25.29
2023-03-10T09:29:17.323Z,25.32
2023-03-10T09:30:17.278Z,25.33
2023-03-10T09:31:17.821Z,25.35
2023-03-10T09:32:17.779Z,25.35
2023-03-10T09:33:18.245Z,25.33
2023-03-10T09:34:17.734Z,25.31
2023-03-10T09:35:17.240Z,25.29
2023-03-10T09:36:17.336Z,25.27
2023-03-10T09:37:17.245Z,25.25
2023-03-10T09:38:17.199Z,25.23
2023-03-10T09:39:17.264Z,25.20
2023-03-10T09:40:17.198Z,25.18
2023-03-10T09:41:17.228Z,25.16
2023-03-10T09:42:25.546Z,25.14
2023-03-10T09:43:18.200Z,25.13
2023-03-10T09:44:17.167Z,25.11
2023-03-10T09:45:17.192Z,25.10
2023-03-10T09:46:17.241Z,25.09
2023-03-10T09:47:19.898Z,25.07
2023-03-10T09:48:17.175Z,25.06
2023-03-10T09:49:17.155Z,25.06
2023-03-10T09:50:17.190Z,25.04
2023-03-10T09:51:17.126Z,25.02
2023-03-10T09:52:17.237Z,25.04
2023-03-10T09:53:17.137Z,25.05
2023-03-10T09:54:17.119Z,25.08
2023-03-10T09:55:17.105Z,25.12
2023-03-10T09:56:17.253Z,25.15
2023-03-10T09:57:17.245Z,25.20
2023-03-10T09:58:17.351Z,25.25
2023-03-10T09:59:17.090Z,25.28
2023-03-10T10:00:17.102Z,25.33
2023-03-10T10:01:17.060Z,25.38
2023-03-10T10:02:17.084Z,25.42
2023-03-10T10:03:17.125Z,25.46
2023-03-10T10:04:17.196Z,25.50
2023-03-10T10:05:17.411Z,25.55
2023-03-10T10:06:17.053Z,25.59
2023-03-10T10:07:17.077Z,25.62
2023-03-10T10:08:17.022Z,25.66
2023-03-10T10:09:17.017Z,25.70
2023-03-10T10:10:17.033Z,25.73
2023-03-10T10:11:17.034Z,25.75
2023-03-10T10:12:17.041Z,25.78
2023-03-10T10:13:17.028Z,25.79
2023-03-10T10:14:27.921Z,25.82
2023-03-10T10:15:18.005Z,25.82
2023-03-10T10:16:33.199Z,25.84
2023-03-10T10:17:18.002Z,25.88
2023-03-10T10:18:20.219Z,25.89
2023-03-10T10:19:16.953Z,25.89
2023-03-10T10:20:16.990Z,25.91
2023-03-10T10:21:16.986Z,25.92
2023-03-10T10:22:16.971Z,25.92
2023-03-10T10:23:16.936Z,25.94
2023-03-10T10:24:16.907Z,25.95
2023-03-10T10:25:16.927Z,25.95
2023-03-10T10:27:16.902Z,25.99
2023-03-10T10:28:16.931Z,26.01
2023-03-10T10:29:16.904Z,26.04
2023-03-10T10:30:16.863Z,26.06
2023-03-10T10:31:16.926Z,26.06
2023-03-10T10:32:16.900Z,26.07
2023-03-10T10:33:16.903Z,26.08
2023-03-10T10:34:19.228Z,26.10
2023-03-10T10:35:16.850Z,26.10
2023-03-10T10:36:16.978Z,26.09
2023-03-10T10:37:16.825Z,26.10
2023-03-10T10:38:16.835Z,26.12
2023-03-10T10:40:16.847Z,26.12
2023-03-10T10:41:16.837Z,26.10
2023-03-10T10:42:16.861Z,26.10
2023-03-10T10:43:17.277Z,26.11
2023-03-10T10:44:16.810Z,26.12
2023-03-10T10:45:16.781Z,26.07
2023-03-10T10:46:16.935Z,26.01
2023-03-10T10:47:16.793Z,25.96
2023-03-10T10:48:17.285Z,25.96
2023-03-10T10:49:16.787Z,25.93
2023-03-10T10:50:17.983Z,25.92
2023-03-10T10:51:16.758Z,25.94
2023-03-10T10:52:16.774Z,25.95
2023-03-10T10:53:16.737Z,25.95
2023-03-10T10:54:16.746Z,25.97
2023-03-10T10:55:16.735Z,25.96
2023-03-10T10:56:16.719Z,25.98
2023-03-10T10:57:16.761Z,26.02
2023-03-10T10:58:16.721Z,26.05
2023-03-10T10:59:16.713Z,26.08
2023-03-10T11:00:16.730Z,26.10
2023-03-10T11:01:16.741Z,26.12
2023-03-10T11:02:16.828Z,26.13
2023-03-10T11:03:16.692Z,26.16
2023-03-10T11:04:17.647Z,26.16
2023-03-10T11:05:16.647Z,26.16
2023-03-10T11:06:16.660Z,26.17
2023-03-10T11:07:16.662Z,26.15
2023-03-10T11:08:16.789Z,26.12
2023-03-10T11:09:16.772Z,26.07
2023-03-10T11:10:16.951Z,26.03
2023-03-10T11:11:16.946Z,25.88
2023-03-10T11:12:16.977Z,25.77
2023-03-10T11:13:17.025Z,25.70
2023-03-10T11:14:17.084Z,25.71
2023-03-10T11:15:17.101Z,25.74
2023-03-10T11:16:17.189Z,25.73
2023-03-10T11:17:17.151Z,25.70
2023-03-10T11:18:17.200Z,25.74
2023-03-10T11:19:17.317Z,25.76
2023-03-10T11:20:17.336Z,25.76
2023-03-10T11:21:17.338Z,25.67
2023-03-10T11:22:17.391Z,25.59
2023-03-10T11:23:17.796Z,25.50
2023-03-10T11:24:17.368Z,25.44
2023-03-10T11:25:17.414Z,25.41
2023-03-10T11:26:17.415Z,25.38
2023-03-10T11:27:17.425Z,25.38
2023-03-10T11:28:17.496Z,25.38
2023-03-10T11:29:17.539Z,25.41
2023-03-10T11:30:17.419Z,25.44
2023-03-10T11:31:17.539Z,25.44
2023-03-10T11:32:17.456Z,25.43
2023-03-10T11:33:17.813Z,25.42
2023-03-10T11:34:17.446Z,25.40
2023-03-10T11:35:17.415Z,25.38
2023-03-10T11:36:17.537Z,25.35
2023-03-10T11:37:17.432Z,25.32
2023-03-10T11:38:17.833Z,25.31
2023-03-10T11:39:17.446Z,25.28
2023-03-10T11:40:17.467Z,25.25
2023-03-10T11:41:17.411Z,25.23
2023-03-10T11:42:17.442Z,25.21
2023-03-10T11:43:17.436Z,25.19
2023-03-10T11:44:17.440Z,25.17
2023-03-10T11:45:17.488Z,25.15
2023-03-10T11:46:17.502Z,25.13
2023-03-10T11:47:17.480Z,25.11
2023-03-10T11:48:17.548Z,25.10
2023-03-10T11:49:17.558Z,25.10
2023-03-10T11:50:17.722Z,25.10
2023-03-10T11:51:17.542Z,25.12
2023-03-10T11:52:17.562Z,25.13
2023-03-10T11:53:17.581Z,25.14
2023-03-10T11:54:17.860Z,25.15
2023-03-10T11:55:17.607Z,25.14
2023-03-10T11:56:17.622Z,25.14
2023-03-10T11:57:17.626Z,25.14
2023-03-10T11:58:17.637Z,25.14
2023-03-10T11:59:17.646Z,25.14
2023-03-10T12:00:17.682Z,25.13
2023-03-10T12:01:17.677Z,25.10
2023-03-10T12:02:17.670Z,25.09
2023-03-10T12:03:17.693Z,25.10
2023-03-10T12:04:17.730Z,25.10
2023-03-10T12:05:17.791Z,25.10
2023-03-10T12:06:17.740Z,25.11
2023-03-10T12:07:17.730Z,25.10
2023-03-10T12:08:17.753Z,25.08
2023-03-10T12:09:17.774Z,25.07
2023-03-10T12:10:17.846Z,25.06
2023-03-10T12:11:17.799Z,25.06
2023-03-10T12:12:17.799Z,25.08
2023-03-10T12:13:17.832Z,25.09
2023-03-10T12:14:17.913Z,25.08
2023-03-10T12:15:17.894Z,25.09
2023-03-10T12:16:18.046Z,25.08
2023-03-10T12:17:17.973Z,25.07
2023-03-10T12:18:17.951Z,25.06
2023-03-10T12:19:17.994Z,25.04
2023-03-10T12:20:17.983Z,25.04
2023-03-10T12:21:17.984Z,25.04
2023-03-10T12:22:18.019Z,25.04
2023-03-10T12:23:18.049Z,25.03
2023-03-10T12:24:18.055Z,25.03
2023-03-10T12:25:18.072Z,25.02
2023-03-10T12:26:18.088Z,25.02
2023-03-10T12:27:18.144Z,25.01
2023-03-10T12:28:18.187Z,25.00
2023-03-10T12:29:18.362Z,24.99
2023-03-10T12:30:18.205Z,24.98
2023-03-10T12:31:18.240Z,24.97
2023-03-10T12:32:18.313Z,24.96
2023-03-10T12:33:18.462Z,24.95
2023-03-10T12:34:18.350Z,24.94
2023-03-10T12:35:18.353Z,24.93
2023-03-10T12:36:18.486Z,24.92
2023-03-10T12:37:18.375Z,24.90
2023-03-10T12:38:18.440Z,24.89
2023-03-10T12:39:18.836Z,24.88
2023-03-10T12:40:18.488Z,24.86
2023-03-10T12:41:18.546Z,24.85
2023-03-10T12:42:18.547Z,24.84
2023-03-10T12:43:18.612Z,24.83
2023-03-10T12:44:18.671Z,24.81
2023-03-10T12:45:18.887Z,24.81
2023-03-10T12:46:18.778Z,24.80
2023-03-10T12:47:18.789Z,24.80
2023-03-10T12:48:18.805Z,24.79
2023-03-10T12:49:18.849Z,24.79
2023-03-10T12:50:19.361Z,24.78
2023-03-10T12:51:18.964Z,24.78
2023-03-10T12:52:18.977Z,24.78
2023-03-10T12:53:19.034Z,24.78
2023-03-10T12:54:19.033Z,24.79
2023-03-10T12:55:19.106Z,24.80
2023-03-10T12:56:19.124Z,24.80
2023-03-10T12:57:19.181Z,24.79
2023-03-10T12:58:19.212Z,24.79
2023-03-10T12:59:19.281Z,24.79
2023-03-10T13:00:19.330Z,24.80
2023-03-10T13:01:19.491Z,24.81
2023-03-10T13:02:19.400Z,24.81
2023-03-10T13:03:19.510Z,24.81
2023-03-10T13:04:19.526Z,24.82
2023-03-10T13:05:19.604Z,24.82
2023-03-10T13:06:20.210Z,24.82
2023-03-10T13:07:19.619Z,24.83
2023-03-10T13:08:19.652Z,24.82
2023-03-10T13:09:19.700Z,24.82
2023-03-10T13:10:19.737Z,24.81
2023-03-10T13:11:19.792Z,24.80
2023-03-10T13:12:19.841Z,24.80
2023-03-10T13:13:19.890Z,24.80
2023-03-10T13:14:19.893Z,24.79
2023-03-10T13:15:19.942Z,24.78
2023-03-10T13:16:20.055Z,24.78
2023-03-10T13:17:20.042Z,24.78
2023-03-10T13:18:20.082Z,24.77
2023-03-10T13:19:20.116Z,24.76
2023-03-10T13:20:20.193Z,24.75
2023-03-10T13:21:20.258Z,24.74
2023-03-10T13:22:20.304Z,24.74
2023-03-10T13:23:20.325Z,24.75
2023-03-10T13:24:20.369Z,24.74
2023-03-10T13:25:20.422Z,24.73
2023-03-10T13:26:20.495Z,24.74
2023-03-10T13:27:20.562Z,24.73
2023-03-10T13:28:20.571Z,24.72
2023-03-10T13:29:20.668Z,24.72
2023-03-10T13:30:20.734Z,24.71
2023-03-10T13:31:20.805Z,24.70
2023-03-10T13:32:20.882Z,24.71
2023-03-10T13:33:20.865Z,24.69
2023-03-10T13:34:20.896Z,24.68
2023-03-10T13:35:21.345Z,24.68
2023-03-10T13:36:20.981Z,24.67
2023-03-10T13:37:21.091Z,24.67
2023-03-10T13:38:21.110Z,24.67
2023-03-10T13:39:23.154Z,24.66
2023-03-10T13:40:21.142Z,24.65
2023-03-10T13:41:21.110Z,24.65
2023-03-10T13:42:24.086Z,24.64
2023-03-10T13:43:22.149Z,24.63
2023-03-10T13:44:21.111Z,24.63
2023-03-10T13:45:21.126Z,24.63
2023-03-10T13:46:21.228Z,24.62
2023-03-10T13:47:21.092Z,24.62
2023-03-10T13:48:21.105Z,24.62
2023-03-10T13:49:21.301Z,24.61
2023-03-10T13:50:21.075Z,24.60
2023-03-10T13:51:21.068Z,24.60
2023-03-10T13:52:21.062Z,24.59
2023-03-10T13:53:21.142Z,24.59
2023-03-10T13:54:21.216Z,24.58
2023-03-10T13:55:21.250Z,24.57
2023-03-10T13:56:21.336Z,24.58
2023-03-10T13:57:21.349Z,24.57
2023-03-10T13:58:21.376Z,24.57
2023-03-10T13:59:21.485Z,24.56
2023-03-10T14:00:21.548Z,24.56
2023-03-10T14:01:21.648Z,24.55
2023-03-10T14:02:21.670Z,24.56
2023-03-10T14:03:21.785Z,24.54
2023-03-10T14:04:21.781Z,24.53
2023-03-10T14:05:21.889Z,24.52
2023-03-10T14:06:21.950Z,24.52
2023-03-10T14:07:21.958Z,24.52
2023-03-10T14:08:22.104Z,24.51
2023-03-10T14:09:22.125Z,24.51
2023-03-10T14:10:22.175Z,24.50
2023-03-10T14:11:22.233Z,24.49
2023-03-10T14:12:22.295Z,24.49
2023-03-10T14:13:22.368Z,24.48
2023-03-10T14:14:22.363Z,24.47
2023-03-10T14:15:22.448Z,24.47
2023-03-10T14:16:22.486Z,24.45
2023-03-10T14:17:22.536Z,24.45
2023-03-10T14:18:22.557Z,24.44
2023-03-10T14:19:22.763Z,24.44
2023-03-10T14:20:22.653Z,24.43
2023-03-10T14:21:22.660Z,24.41
2023-03-10T14:22:22.641Z,24.42
2023-03-10T14:23:22.739Z,24.40
2023-03-10T14:24:22.722Z,24.40
2023-03-10T14:25:22.756Z,24.39
2023-03-10T14:26:22.801Z,24.39
2023-03-10T14:27:22.790Z,24.38
2023-03-10T14:28:22.780Z,24.37
2023-03-10T14:29:22.821Z,24.36
2023-03-10T14:30:22.840Z,24.34
2023-03-10T14:31:22.990Z,24.35
2023-03-10T14:32:23.057Z,24.33
2023-03-10T14:33:22.874Z,24.30
2023-03-10T14:34:22.900Z,24.28
2023-03-10T14:35:22.908Z,24.27
2023-03-10T14:36:22.884Z,24.25
2023-03-10T14:37:22.868Z,24.24
2023-03-10T14:38:22.875Z,24.22
2023-03-10T14:39:22.869Z,24.23
2023-03-10T14:40:22.870Z,24.23
2023-03-10T14:41:22.904Z,24.23
2023-03-10T14:42:22.876Z,24.23
2023-03-10T14:43:22.891Z,24.22
2023-03-10T14:44:22.941Z,24.21
2023-03-10T14:45:22.935Z,24.19
2023-03-10T14:46:23.118Z,24.19
2023-03-10T14:47:23.219Z,24.18
2023-03-10T14:48:23.027Z,24.17
2023-03-10T14:49:22.959Z,24.16
2023-03-10T14:50:22.937Z,24.15
2023-03-10T14:51:35.044Z,24.16
2023-03-10T14:52:23.954Z,24.16
2023-03-10T14:53:22.988Z,24.17
2023-03-10T14:54:22.942Z,24.17